sensor_id;sensor_type;location;lat;lon;timestamp;P1;durP1;ratioP1;P2;durP2;ratioP2
52776;SDS011;38656;54.260;20.822;2023-09-19T00:01:28;14.20;;;12.90;;
52776;SDS011;38656;54.260;20.822;2023-09-19T00:03:57;13.70;;;11.98;;
52776;SDS011;38656;54.260;20.822;2023-09-19T00:06:24;14.88;;;13.23;;
52776;SDS011;38656;54.260;20.822;2023-09-19T00:08:51;13.48;;;12.18;;
52776;SDS011;38656;54.260;20.822;2023-09-19T00:11:18;12.63;;;11.68;;
52776;SDS011;38656;54.260;20.822;2023-09-19T00:13:44;12.98;;;11.88;;
52776;SDS011;38656;54.260;20.822;2023-09-19T00:16:14;12.90;;;11.68;;
52776;SDS011;38656;54.260;20.822;2023-09-19T00:18:40;13.88;;;12.40;;
52776;SDS011;38656;54.260;20.822;2023-09-19T00:21:07;13.93;;;12.45;;
52776;SDS011;38656;54.260;20.822;2023-09-19T00:23:35;12.85;;;11.80;;
52776;SDS011;38656;54.260;20.822;2023-09-19T00:26:01;13.30;;;12.10;;
52776;SDS011;38656;54.260;20.822;2023-09-19T00:28:28;16.52;;;12.70;;
52776;SDS011;38656;54.260;20.822;2023-09-19T00:30:55;13.32;;;12.13;;
52776;SDS011;38656;54.260;20.822;2023-09-19T00:33:21;12.95;;;11.85;;
52776;SDS011;38656;54.260;20.822;2023-09-19T00:35:48;12.65;;;11.55;;
52776;SDS011;38656;54.260;20.822;2023-09-19T00:38:14;12.55;;;11.45;;
52776;SDS011;38656;54.260;20.822;2023-09-19T00:40:48;13.37;;;12.33;;
52776;SDS011;38656;54.260;20.822;2023-09-19T00:43:14;13.65;;;12.15;;
52776;SDS011;38656;54.260;20.822;2023-09-19T00:45:45;13.13;;;11.98;;
52776;SDS011;38656;54.260;20.822;2023-09-19T00:48:13;13.95;;;12.70;;
52776;SDS011;38656;54.260;20.822;2023-09-19T00:50:39;13.98;;;12.52;;
52776;SDS011;38656;54.260;20.822;2023-09-19T00:53:07;12.80;;;11.65;;
52776;SDS011;38656;54.260;20.822;2023-09-19T00:55:38;13.00;;;11.75;;
52776;SDS011;38656;54.260;20.822;2023-09-19T00:58:05;14.95;;;13.82;;
52776;SDS011;38656;54.260;20.822;2023-09-19T01:00:32;19.13;;;14.80;;
52776;SDS011;38656;54.260;20.822;2023-09-19T01:02:59;16.95;;;14.18;;
52776;SDS011;38656;54.260;20.822;2023-09-19T01:05:26;15.68;;;14.10;;
52776;SDS011;38656;54.260;20.822;2023-09-19T01:07:53;15.18;;;13.75;;
52776;SDS011;38656;54.260;20.822;2023-09-19T01:10:19;15.73;;;14.18;;
52776;SDS011;38656;54.260;20.822;2023-09-19T01:28:48;14.52;;;13.32;;
52776;SDS011;38656;54.260;20.822;2023-09-19T01:31:19;16.08;;;14.40;;
52776;SDS011;38656;54.260;20.822;2023-09-19T01:33:55;15.40;;;14.00;;
52776;SDS011;38656;54.260;20.822;2023-09-19T01:36:22;15.68;;;14.32;;
52776;SDS011;38656;54.260;20.822;2023-09-19T01:38:49;14.80;;;13.40;;
52776;SDS011;38656;54.260;20.822;2023-09-19T01:41:16;13.38;;;12.27;;
52776;SDS011;38656;54.260;20.822;2023-09-19T01:43:45;16.20;;;14.73;;
52776;SDS011;38656;54.260;20.822;2023-09-19T01:46:17;15.18;;;13.43;;
52776;SDS011;38656;54.260;20.822;2023-09-19T01:48:49;16.00;;;14.60;;
52776;SDS011;38656;54.260;20.822;2023-09-19T01:51:25;15.52;;;13.95;;
52776;SDS011;38656;54.260;20.822;2023-09-19T01:54:00;15.05;;;13.75;;
52776;SDS011;38656;54.260;20.822;2023-09-19T01:56:30;15.05;;;13.52;;
52776;SDS011;38656;54.260;20.822;2023-09-19T01:58:59;14.75;;;13.55;;
52776;SDS011;38656;54.260;20.822;2023-09-19T02:01:25;14.88;;;13.57;;
52776;SDS011;38656;54.260;20.822;2023-09-19T02:03:51;14.98;;;13.73;;
52776;SDS011;38656;54.260;20.822;2023-09-19T02:06:19;14.70;;;13.15;;
52776;SDS011;38656;54.260;20.822;2023-09-19T02:08:46;15.32;;;13.98;;
52776;SDS011;38656;54.260;20.822;2023-09-19T02:11:12;14.27;;;13.07;;
52776;SDS011;38656;54.260;20.822;2023-09-19T02:13:38;14.40;;;13.20;;
52776;SDS011;38656;54.260;20.822;2023-09-19T02:16:05;16.50;;;13.25;;
52776;SDS011;38656;54.260;20.822;2023-09-19T02:18:32;15.55;;;14.15;;
52776;SDS011;38656;54.260;20.822;2023-09-19T02:21:00;15.65;;;14.15;;
52776;SDS011;38656;54.260;20.822;2023-09-19T02:23:26;15.13;;;13.73;;
52776;SDS011;38656;54.260;20.822;2023-09-19T02:25:55;14.13;;;12.80;;
52776;SDS011;38656;54.260;20.822;2023-09-19T02:28:30;14.15;;;12.82;;
52776;SDS011;38656;54.260;20.822;2023-09-19T02:30:57;13.90;;;12.70;;
52776;SDS011;38656;54.260;20.822;2023-09-19T02:33:23;14.38;;;13.13;;
52776;SDS011;38656;54.260;20.822;2023-09-19T02:35:49;14.82;;;13.48;;
52776;SDS011;38656;54.260;20.822;2023-09-19T02:38:16;14.90;;;13.48;;
52776;SDS011;38656;54.260;20.822;2023-09-19T02:40:46;14.75;;;12.88;;
52776;SDS011;38656;54.260;20.822;2023-09-19T02:43:12;15.68;;;13.50;;
52776;SDS011;38656;54.260;20.822;2023-09-19T02:45:38;15.32;;;13.82;;
52776;SDS011;38656;54.260;20.822;2023-09-19T02:48:04;14.18;;;13.02;;
52776;SDS011;38656;54.260;20.822;2023-09-19T02:50:32;15.85;;;14.38;;
52776;SDS011;38656;54.260;20.822;2023-09-19T02:52:59;14.23;;;12.93;;
52776;SDS011;38656;54.260;20.822;2023-09-19T02:55:25;14.65;;;13.35;;
52776;SDS011;38656;54.260;20.822;2023-09-19T02:57:52;13.73;;;12.48;;
52776;SDS011;38656;54.260;20.822;2023-09-19T03:00:20;14.52;;;13.20;;
52776;SDS011;38656;54.260;20.822;2023-09-19T03:02:46;14.93;;;13.70;;
52776;SDS011;38656;54.260;20.822;2023-09-19T03:05:13;14.73;;;13.40;;
52776;SDS011;38656;54.260;20.822;2023-09-19T03:07:39;14.68;;;13.45;;
52776;SDS011;38656;54.260;20.822;2023-09-19T03:10:08;13.98;;;12.82;;
52776;SDS011;38656;54.260;20.822;2023-09-19T03:12:34;14.38;;;13.13;;
52776;SDS011;38656;54.260;20.822;2023-09-19T03:15:00;14.82;;;13.35;;
52776;SDS011;38656;54.260;20.822;2023-09-19T03:17:26;14.13;;;12.93;;
52776;SDS011;38656;54.260;20.822;2023-09-19T03:19:52;14.27;;;13.07;;
52776;SDS011;38656;54.260;20.822;2023-09-19T03:22:19;13.70;;;12.40;;
52776;SDS011;38656;54.260;20.822;2023-09-19T03:24:45;15.75;;;13.45;;
52776;SDS011;38656;54.260;20.822;2023-09-19T03:27:12;17.63;;;15.82;;
52776;SDS011;38656;54.260;20.822;2023-09-19T03:29:42;15.77;;;14.38;;
52776;SDS011;38656;54.260;20.822;2023-09-19T03:32:08;14.95;;;13.60;;
52776;SDS011;38656;54.260;20.822;2023-09-19T03:34:37;15.27;;;13.70;;
52776;SDS011;38656;54.260;20.822;2023-09-19T03:37:08;15.45;;;13.75;;
52776;SDS011;38656;54.260;20.822;2023-09-19T03:39:34;17.27;;;15.50;;
52776;SDS011;38656;54.260;20.822;2023-09-19T03:42:01;15.48;;;14.02;;
52776;SDS011;38656;54.260;20.822;2023-09-19T03:44:29;16.10;;;14.55;;
52776;SDS011;38656;54.260;20.822;2023-09-19T03:46:55;15.85;;;14.45;;
52776;SDS011;38656;54.260;20.822;2023-09-19T03:49:21;15.65;;;14.40;;
52776;SDS011;38656;54.260;20.822;2023-09-19T03:51:47;16.42;;;14.73;;
52776;SDS011;38656;54.260;20.822;2023-09-19T03:54:14;16.15;;;14.55;;
52776;SDS011;38656;54.260;20.822;2023-09-19T03:56:40;15.95;;;14.55;;
52776;SDS011;38656;54.260;20.822;2023-09-19T03:59:07;17.50;;;15.75;;
52776;SDS011;38656;54.260;20.822;2023-09-19T04:01:34;17.20;;;15.57;;
52776;SDS011;38656;54.260;20.822;2023-09-19T04:04:00;16.45;;;15.00;;
52776;SDS011;38656;54.260;20.822;2023-09-19T04:06:33;16.00;;;14.65;;
52776;SDS011;38656;54.260;20.822;2023-09-19T04:09:02;15.60;;;14.10;;
52776;SDS011;38656;54.260;20.822;2023-09-19T04:11:29;16.88;;;15.27;;
52776;SDS011;38656;54.260;20.822;2023-09-19T04:13:56;18.05;;;15.98;;
52776;SDS011;38656;54.260;20.822;2023-09-19T04:16:22;25.75;;;16.17;;
52776;SDS011;38656;54.260;20.822;2023-09-19T04:18:48;21.05;;;17.38;;
52776;SDS011;38656;54.260;20.822;2023-09-19T04:21:14;18.48;;;16.77;;
52776;SDS011;38656;54.260;20.822;2023-09-19T04:23:41;17.05;;;15.48;;
52776;SDS011;38656;54.260;20.822;2023-09-19T04:26:07;17.30;;;15.63;;
52776;SDS011;38656;54.260;20.822;2023-09-19T04:28:33;18.58;;;16.38;;
52776;SDS011;38656;54.260;20.822;2023-09-19T04:31:03;17.40;;;15.18;;
52776;SDS011;38656;54.260;20.822;2023-09-19T04:33:29;18.50;;;16.70;;
52776;SDS011;38656;54.260;20.822;2023-09-19T04:35:55;18.60;;;15.68;;
52776;SDS011;38656;54.260;20.822;2023-09-19T04:38:22;17.02;;;15.43;;
52776;SDS011;38656;54.260;20.822;2023-09-19T04:40:48;18.15;;;15.75;;
52776;SDS011;38656;54.260;20.822;2023-09-19T04:43:14;15.75;;;14.35;;
52776;SDS011;38656;54.260;20.822;2023-09-19T04:45:40;17.67;;;15.75;;
52776;SDS011;38656;54.260;20.822;2023-09-19T04:48:06;16.65;;;14.85;;
52776;SDS011;38656;54.260;20.822;2023-09-19T04:50:33;17.35;;;15.85;;
52776;SDS011;38656;54.260;20.822;2023-09-19T04:52:59;18.02;;;16.20;;
52776;SDS011;38656;54.260;20.822;2023-09-19T04:55:26;18.15;;;16.60;;
52776;SDS011;38656;54.260;20.822;2023-09-19T04:57:52;17.20;;;15.60;;
52776;SDS011;38656;54.260;20.822;2023-09-19T05:00:21;16.58;;;15.00;;
52776;SDS011;38656;54.260;20.822;2023-09-19T05:02:52;16.90;;;15.20;;
52776;SDS011;38656;54.260;20.822;2023-09-19T05:05:18;17.73;;;15.70;;
52776;SDS011;38656;54.260;20.822;2023-09-19T05:07:45;16.58;;;15.02;;
52776;SDS011;38656;54.260;20.822;2023-09-19T05:10:11;19.58;;;16.30;;
52776;SDS011;38656;54.260;20.822;2023-09-19T05:12:38;17.67;;;16.02;;
52776;SDS011;38656;54.260;20.822;2023-09-19T05:15:05;20.10;;;16.17;;
52776;SDS011;38656;54.260;20.822;2023-09-19T05:17:34;18.15;;;16.13;;
52776;SDS011;38656;54.260;20.822;2023-09-19T05:20:01;17.30;;;15.52;;
52776;SDS011;38656;54.260;20.822;2023-09-19T05:22:46;16.63;;;15.07;;
52776;SDS011;38656;54.260;20.822;2023-09-19T05:25:12;17.92;;;16.13;;
52776;SDS011;38656;54.260;20.822;2023-09-19T05:27:43;17.27;;;15.73;;
52776;SDS011;38656;54.260;20.822;2023-09-19T05:30:09;16.48;;;15.02;;
52776;SDS011;38656;54.260;20.822;2023-09-19T05:32:36;18.00;;;16.15;;
52776;SDS011;38656;54.260;20.822;2023-09-19T05:35:02;16.83;;;15.25;;
52776;SDS011;38656;54.260;20.822;2023-09-19T05:37:28;16.67;;;15.15;;
52776;SDS011;38656;54.260;20.822;2023-09-19T05:39:54;18.13;;;16.52;;
52776;SDS011;38656;54.260;20.822;2023-09-19T05:42:20;20.90;;;16.23;;
52776;SDS011;38656;54.260;20.822;2023-09-19T05:44:46;16.63;;;15.05;;
52776;SDS011;38656;54.260;20.822;2023-09-19T05:47:12;15.63;;;14.30;;
52776;SDS011;38656;54.260;20.822;2023-09-19T05:49:38;16.92;;;15.43;;
52776;SDS011;38656;54.260;20.822;2023-09-19T05:52:07;21.05;;;15.95;;
52776;SDS011;38656;54.260;20.822;2023-09-19T05:54:34;16.90;;;15.23;;
52776;SDS011;38656;54.260;20.822;2023-09-19T05:57:03;16.02;;;14.52;;
52776;SDS011;38656;54.260;20.822;2023-09-19T05:59:29;18.00;;;16.45;;
52776;SDS011;38656;54.260;20.822;2023-09-19T06:01:55;17.17;;;15.45;;
52776;SDS011;38656;54.260;20.822;2023-09-19T06:04:21;19.65;;;16.58;;
52776;SDS011;38656;54.260;20.822;2023-09-19T06:06:48;16.60;;;14.88;;
52776;SDS011;38656;54.260;20.822;2023-09-19T06:09:14;16.40;;;14.75;;
52776;SDS011;38656;54.260;20.822;2023-09-19T06:11:43;16.70;;;15.00;;
52776;SDS011;38656;54.260;20.822;2023-09-19T06:14:09;18.08;;;16.38;;
52776;SDS011;38656;54.260;20.822;2023-09-19T06:16:35;18.35;;;16.13;;
52776;SDS011;38656;54.260;20.822;2023-09-19T06:19:03;16.58;;;14.93;;
52776;SDS011;38656;54.260;20.822;2023-09-19T06:21:33;16.83;;;15.23;;
52776;SDS011;38656;54.260;20.822;2023-09-19T06:23:59;16.30;;;14.90;;
52776;SDS011;38656;54.260;20.822;2023-09-19T06:26:25;17.25;;;15.63;;
52776;SDS011;38656;54.260;20.822;2023-09-19T06:28:56;17.10;;;15.38;;
52776;SDS011;38656;54.260;20.822;2023-09-19T06:31:22;16.38;;;14.90;;
52776;SDS011;38656;54.260;20.822;2023-09-19T06:33:51;17.25;;;15.57;;
52776;SDS011;38656;54.260;20.822;2023-09-19T06:36:17;16.67;;;15.13;;
52776;SDS011;38656;54.260;20.822;2023-09-19T06:38:44;15.45;;;14.00;;
52776;SDS011;38656;54.260;20.822;2023-09-19T06:41:10;17.48;;;14.68;;
52776;SDS011;38656;54.260;20.822;2023-09-19T06:43:38;17.85;;;16.13;;
52776;SDS011;38656;54.260;20.822;2023-09-19T06:46:04;17.85;;;16.08;;
52776;SDS011;38656;54.260;20.822;2023-09-19T06:48:32;19.10;;;17.30;;
52776;SDS011;38656;54.260;20.822;2023-09-19T06:50:58;18.33;;;16.63;;
52776;SDS011;38656;54.260;20.822;2023-09-19T06:53:30;18.92;;;16.52;;
52776;SDS011;38656;54.260;20.822;2023-09-19T06:55:57;17.13;;;15.63;;
52776;SDS011;38656;54.260;20.822;2023-09-19T06:58:23;16.67;;;14.63;;
52776;SDS011;38656;54.260;20.822;2023-09-19T07:00:49;17.77;;;16.10;;
52776;SDS011;38656;54.260;20.822;2023-09-19T07:03:18;18.50;;;16.85;;
52776;SDS011;38656;54.260;20.822;2023-09-19T07:05:46;16.92;;;15.25;;
52776;SDS011;38656;54.260;20.822;2023-09-19T07:08:12;17.30;;;15.80;;
52776;SDS011;38656;54.260;20.822;2023-09-19T07:10:39;20.77;;;16.40;;
52776;SDS011;38656;54.260;20.822;2023-09-19T07:13:15;19.63;;;15.55;;
52776;SDS011;38656;54.260;20.822;2023-09-19T07:15:44;16.40;;;14.90;;
52776;SDS011;38656;54.260;20.822;2023-09-19T07:18:15;15.40;;;14.10;;
52776;SDS011;38656;54.260;20.822;2023-09-19T07:20:41;15.98;;;14.75;;
52776;SDS011;38656;54.260;20.822;2023-09-19T07:23:11;17.08;;;15.57;;
52776;SDS011;38656;54.260;20.822;2023-09-19T07:25:40;17.83;;;16.23;;
52776;SDS011;38656;54.260;20.822;2023-09-19T07:28:06;18.77;;;16.95;;
52776;SDS011;38656;54.260;20.822;2023-09-19T07:30:35;17.27;;;15.73;;
52776;SDS011;38656;54.260;20.822;2023-09-19T07:33:02;18.60;;;17.15;;
52776;SDS011;38656;54.260;20.822;2023-09-19T07:35:30;17.75;;;16.08;;
52776;SDS011;38656;54.260;20.822;2023-09-19T07:37:56;20.85;;;19.15;;
52776;SDS011;38656;54.260;20.822;2023-09-19T07:40:26;20.73;;;18.92;;
52776;SDS011;38656;54.260;20.822;2023-09-19T07:42:54;21.40;;;19.60;;
52776;SDS011;38656;54.260;20.822;2023-09-19T07:45:20;23.40;;;21.13;;
52776;SDS011;38656;54.260;20.822;2023-09-19T07:47:46;22.13;;;20.00;;
52776;SDS011;38656;54.260;20.822;2023-09-19T07:50:13;23.15;;;21.15;;
52776;SDS011;38656;54.260;20.822;2023-09-19T07:52:39;26.25;;;23.95;;
52776;SDS011;38656;54.260;20.822;2023-09-19T07:55:06;26.63;;;24.10;;
52776;SDS011;38656;54.260;20.822;2023-09-19T07:57:36;26.90;;;24.23;;
52776;SDS011;38656;54.260;20.822;2023-09-19T08:00:02;28.58;;;26.05;;
52776;SDS011;38656;54.260;20.822;2023-09-19T08:02:30;26.00;;;23.75;;
52776;SDS011;38656;54.260;20.822;2023-09-19T08:04:59;27.08;;;24.60;;
52776;SDS011;38656;54.260;20.822;2023-09-19T08:07:25;29.33;;;26.65;;
52776;SDS011;38656;54.260;20.822;2023-09-19T08:09:53;28.25;;;25.90;;
52776;SDS011;38656;54.260;20.822;2023-09-19T08:12:19;31.90;;;29.02;;
52776;SDS011;38656;54.260;20.822;2023-09-19T08:14:49;33.88;;;29.80;;
52776;SDS011;38656;54.260;20.822;2023-09-19T08:17:15;31.20;;;28.48;;
52776;SDS011;38656;54.260;20.822;2023-09-19T08:19:41;28.55;;;25.60;;
52776;SDS011;38656;54.260;20.822;2023-09-19T08:22:10;27.67;;;24.90;;
52776;SDS011;38656;54.260;20.822;2023-09-19T08:24:36;28.10;;;25.60;;
52776;SDS011;38656;54.260;20.822;2023-09-19T08:27:03;27.85;;;25.30;;
52776;SDS011;38656;54.260;20.822;2023-09-19T08:29:33;31.42;;;27.90;;
52776;SDS011;38656;54.260;20.822;2023-09-19T08:32:00;32.25;;;28.90;;
52776;SDS011;38656;54.260;20.822;2023-09-19T08:34:26;31.45;;;28.65;;
52776;SDS011;38656;54.260;20.822;2023-09-19T08:36:53;30.50;;;27.77;;
52776;SDS011;38656;54.260;20.822;2023-09-19T08:39:22;30.50;;;27.58;;
52776;SDS011;38656;54.260;20.822;2023-09-19T08:41:49;34.65;;;28.85;;
52776;SDS011;38656;54.260;20.822;2023-09-19T08:44:15;30.77;;;27.98;;
52776;SDS011;38656;54.260;20.822;2023-09-19T08:46:41;29.60;;;26.98;;
52776;SDS011;38656;54.260;20.822;2023-09-19T08:49:08;29.42;;;26.65;;
52776;SDS011;38656;54.260;20.822;2023-09-19T08:51:44;30.45;;;27.20;;
52776;SDS011;38656;54.260;20.822;2023-09-19T08:54:14;29.23;;;26.20;;
52776;SDS011;38656;54.260;20.822;2023-09-19T08:56:44;29.70;;;26.95;;
52776;SDS011;38656;54.260;20.822;2023-09-19T08:59:12;30.42;;;27.23;;
52776;SDS011;38656;54.260;20.822;2023-09-19T09:01:38;29.85;;;26.83;;
52776;SDS011;38656;54.260;20.822;2023-09-19T09:04:07;29.70;;;26.42;;
52776;SDS011;38656;54.260;20.822;2023-09-19T09:06:38;28.95;;;26.30;;
52776;SDS011;38656;54.260;20.822;2023-09-19T09:09:05;28.25;;;25.95;;
52776;SDS011;38656;54.260;20.822;2023-09-19T09:11:32;26.42;;;23.83;;
52776;SDS011;38656;54.260;20.822;2023-09-19T09:13:59;27.05;;;23.95;;
52776;SDS011;38656;54.260;20.822;2023-09-19T09:16:25;25.40;;;23.08;;
52776;SDS011;38656;54.260;20.822;2023-09-19T09:18:51;24.13;;;21.88;;
52776;SDS011;38656;54.260;20.822;2023-09-19T09:21:19;22.88;;;20.90;;
52776;SDS011;38656;54.260;20.822;2023-09-19T09:23:47;22.42;;;20.42;;
52776;SDS011;38656;54.260;20.822;2023-09-19T09:26:13;21.00;;;19.02;;
52776;SDS011;38656;54.260;20.822;2023-09-19T09:28:44;20.55;;;18.77;;
52776;SDS011;38656;54.260;20.822;2023-09-19T09:31:23;22.52;;;20.42;;
52776;SDS011;38656;54.260;20.822;2023-09-19T09:33:53;22.85;;;20.73;;
52776;SDS011;38656;54.260;20.822;2023-09-19T09:36:32;21.98;;;20.17;;
52776;SDS011;38656;54.260;20.822;2023-09-19T09:38:59;21.20;;;19.10;;
52776;SDS011;38656;54.260;20.822;2023-09-19T09:41:40;19.38;;;17.52;;
52776;SDS011;38656;54.260;20.822;2023-09-19T09:44:18;18.85;;;17.27;;
52776;SDS011;38656;54.260;20.822;2023-09-19T09:46:45;20.45;;;17.27;;
52776;SDS011;38656;54.260;20.822;2023-09-19T09:49:15;20.60;;;18.83;;
52776;SDS011;38656;54.260;20.822;2023-09-19T09:52:00;19.20;;;17.50;;
52776;SDS011;38656;54.260;20.822;2023-09-19T09:54:30;18.63;;;16.85;;
52776;SDS011;38656;54.260;20.822;2023-09-19T09:57:09;19.33;;;17.45;;
52776;SDS011;38656;54.260;20.822;2023-09-19T09:59:57;19.40;;;17.25;;
52776;SDS011;38656;54.260;20.822;2023-09-19T10:02:27;19.48;;;16.48;;
52776;SDS011;38656;54.260;20.822;2023-09-19T10:04:57;21.25;;;16.88;;
52776;SDS011;38656;54.260;20.822;2023-09-19T10:07:38;18.25;;;16.63;;
52776;SDS011;38656;54.260;20.822;2023-09-19T10:10:07;17.77;;;16.27;;
52776;SDS011;38656;54.260;20.822;2023-09-19T10:12:54;16.48;;;14.57;;
52776;SDS011;38656;54.260;20.822;2023-09-19T10:15:21;15.93;;;14.63;;
52776;SDS011;38656;54.260;20.822;2023-09-19T10:17:50;31.80;;;14.80;;
52776;SDS011;38656;54.260;20.822;2023-09-19T10:20:21;19.45;;;14.77;;
52776;SDS011;38656;54.260;20.822;2023-09-19T10:22:49;19.10;;;17.27;;
52776;SDS011;38656;54.260;20.822;2023-09-19T10:25:24;18.45;;;16.60;;
52776;SDS011;38656;54.260;20.822;2023-09-19T10:27:50;18.98;;;17.13;;
52776;SDS011;38656;54.260;20.822;2023-09-19T10:30:18;18.15;;;15.93;;
52776;SDS011;38656;54.260;20.822;2023-09-19T10:32:45;18.23;;;16.52;;
52776;SDS011;38656;54.260;20.822;2023-09-19T10:35:13;17.55;;;15.90;;
52776;SDS011;38656;54.260;20.822;2023-09-19T10:37:40;17.20;;;15.70;;
52776;SDS011;38656;54.260;20.822;2023-09-19T10:40:07;16.80;;;15.32;;
52776;SDS011;38656;54.260;20.822;2023-09-19T10:42:34;15.70;;;14.38;;
52776;SDS011;38656;54.260;20.822;2023-09-19T10:45:03;15.02;;;13.75;;
52776;SDS011;38656;54.260;20.822;2023-09-19T10:47:33;16.00;;;14.52;;
52776;SDS011;38656;54.260;20.822;2023-09-19T10:49:59;15.07;;;12.82;;
52776;SDS011;38656;54.260;20.822;2023-09-19T10:52:25;15.20;;;13.82;;
52776;SDS011;38656;54.260;20.822;2023-09-19T10:54:53;13.07;;;11.98;;
52776;SDS011;38656;54.260;20.822;2023-09-19T10:57:23;14.05;;;12.73;;
52776;SDS011;38656;54.260;20.822;2023-09-19T11:03:01;14.23;;;12.93;;
52776;SDS011;38656;54.260;20.822;2023-09-19T11:05:32;13.20;;;12.00;;
52776;SDS011;38656;54.260;20.822;2023-09-19T11:07:59;14.52;;;11.93;;
52776;SDS011;38656;54.260;20.822;2023-09-19T11:10:45;13.13;;;12.02;;
52776;SDS011;38656;54.260;20.822;2023-09-19T11:13:45;12.80;;;11.60;;
52776;SDS011;38656;54.260;20.822;2023-09-19T11:16:06;19.60;;;11.77;;
52776;SDS011;38656;54.260;20.822;2023-09-19T11:26:44;10.90;;;9.80;;
52776;SDS011;38656;54.260;20.822;2023-09-19T11:29:29;11.10;;;9.82;;
52776;SDS011;38656;54.260;20.822;2023-09-19T11:31:56;9.65;;;8.75;;
52776;SDS011;38656;54.260;20.822;2023-09-19T11:42:44;8.10;;;7.30;;
52776;SDS011;38656;54.260;20.822;2023-09-19T11:47:57;10.30;;;7.78;;
52776;SDS011;38656;54.260;20.822;2023-09-19T11:50:25;9.90;;;7.57;;
52776;SDS011;38656;54.260;20.822;2023-09-19T11:52:51;8.95;;;6.88;;
52776;SDS011;38656;54.260;20.822;2023-09-19T11:55:17;8.07;;;6.95;;
52776;SDS011;38656;54.260;20.822;2023-09-19T11:57:47;7.38;;;6.68;;
52776;SDS011;38656;54.260;20.822;2023-09-19T12:00:19;7.13;;;6.38;;
52776;SDS011;38656;54.260;20.822;2023-09-19T12:02:46;6.38;;;5.72;;
52776;SDS011;38656;54.260;20.822;2023-09-19T12:05:15;7.75;;;5.78;;
52776;SDS011;38656;54.260;20.822;2023-09-19T12:07:42;5.93;;;5.40;;
52776;SDS011;38656;54.260;20.822;2023-09-19T12:10:12;7.45;;;5.88;;
52776;SDS011;38656;54.260;20.822;2023-09-19T12:12:45;8.27;;;4.90;;
52776;SDS011;38656;54.260;20.822;2023-09-19T12:15:14;6.35;;;5.75;;
52776;SDS011;38656;54.260;20.822;2023-09-19T12:17:41;6.38;;;5.18;;
52776;SDS011;38656;54.260;20.822;2023-09-19T12:20:08;6.57;;;4.57;;
52776;SDS011;38656;54.260;20.822;2023-09-19T12:25:08;11.13;;;5.68;;
52776;SDS011;38656;54.260;20.822;2023-09-19T12:27:43;11.65;;;5.32;;
52776;SDS011;38656;54.260;20.822;2023-09-19T12:30:12;5.00;;;4.47;;
52776;SDS011;38656;54.260;20.822;2023-09-19T12:32:44;5.97;;;4.43;;
52776;SDS011;38656;54.260;20.822;2023-09-19T12:35:29;5.38;;;4.32;;
52776;SDS011;38656;54.260;20.822;2023-09-19T12:37:56;5.32;;;4.03;;
52776;SDS011;38656;54.260;20.822;2023-09-19T12:40:22;7.53;;;4.70;;
52776;SDS011;38656;54.260;20.822;2023-09-19T12:42:52;5.15;;;4.57;;
52776;SDS011;38656;54.260;20.822;2023-09-19T12:45:20;5.93;;;4.20;;
52776;SDS011;38656;54.260;20.822;2023-09-19T12:50:33;7.25;;;4.88;;
52776;SDS011;38656;54.260;20.822;2023-09-19T12:52:59;5.38;;;4.60;;
52776;SDS011;38656;54.260;20.822;2023-09-19T12:55:26;10.10;;;5.10;;
52776;SDS011;38656;54.260;20.822;2023-09-19T13:00:44;5.45;;;4.10;;
52776;SDS011;38656;54.260;20.822;2023-09-19T13:03:26;6.28;;;4.20;;
52776;SDS011;38656;54.260;20.822;2023-09-19T13:06:01;7.22;;;4.88;;
52776;SDS011;38656;54.260;20.822;2023-09-19T13:08:32;9.35;;;6.55;;
52776;SDS011;38656;54.260;20.822;2023-09-19T13:16:06;6.30;;;4.43;;
52776;SDS011;38656;54.260;20.822;2023-09-19T13:18:41;8.35;;;4.78;;
52776;SDS011;38656;54.260;20.822;2023-09-19T13:21:11;5.03;;;4.63;;
52776;SDS011;38656;54.260;20.822;2023-09-19T13:23:51;4.80;;;4.30;;
52776;SDS011;38656;54.260;20.822;2023-09-19T13:26:17;6.25;;;4.45;;
52776;SDS011;38656;54.260;20.822;2023-09-19T13:28:44;4.95;;;4.20;;
52776;SDS011;38656;54.260;20.822;2023-09-19T13:31:10;4.95;;;4.03;;
52776;SDS011;38656;54.260;20.822;2023-09-19T13:33:42;4.50;;;4.10;;
52776;SDS011;38656;54.260;20.822;2023-09-19T13:36:08;5.65;;;4.00;;
52776;SDS011;38656;54.260;20.822;2023-09-19T13:38:34;6.00;;;4.55;;
52776;SDS011;38656;54.260;20.822;2023-09-19T13:41:00;4.47;;;4.07;;
52776;SDS011;38656;54.260;20.822;2023-09-19T13:43:27;6.70;;;4.03;;
52776;SDS011;38656;54.260;20.822;2023-09-19T13:45:54;6.85;;;3.63;;
52776;SDS011;38656;54.260;20.822;2023-09-19T13:48:20;6.10;;;4.35;;
52776;SDS011;38656;54.260;20.822;2023-09-19T13:50:47;5.22;;;4.60;;
52776;SDS011;38656;54.260;20.822;2023-09-19T13:53:13;7.65;;;4.35;;
52776;SDS011;38656;54.260;20.822;2023-09-19T13:55:39;6.13;;;4.30;;
52776;SDS011;38656;54.260;20.822;2023-09-19T13:58:06;8.35;;;4.22;;
52776;SDS011;38656;54.260;20.822;2023-09-19T14:00:32;5.05;;;4.18;;
52776;SDS011;38656;54.260;20.822;2023-09-19T14:03:01;6.38;;;4.28;;
52776;SDS011;38656;54.260;20.822;2023-09-19T14:05:29;7.10;;;4.03;;
52776;SDS011;38656;54.260;20.822;2023-09-19T14:07:59;4.38;;;3.83;;
52776;SDS011;38656;54.260;20.822;2023-09-19T14:10:25;7.53;;;4.50;;
52776;SDS011;38656;54.260;20.822;2023-09-19T14:12:52;10.00;;;4.07;;
52776;SDS011;38656;54.260;20.822;2023-09-19T14:15:18;5.47;;;4.25;;
52776;SDS011;38656;54.260;20.822;2023-09-19T14:17:45;5.30;;;4.15;;
52776;SDS011;38656;54.260;20.822;2023-09-19T14:20:11;7.18;;;4.10;;
52776;SDS011;38656;54.260;20.822;2023-09-19T14:25:07;5.82;;;4.47;;
52776;SDS011;38656;54.260;20.822;2023-09-19T14:27:34;5.43;;;4.60;;
52776;SDS011;38656;54.260;20.822;2023-09-19T14:30:00;3.92;;;3.55;;
52776;SDS011;38656;54.260;20.822;2023-09-19T14:32:26;6.60;;;3.92;;
52776;SDS011;38656;54.260;20.822;2023-09-19T14:34:52;5.32;;;3.92;;
52776;SDS011;38656;54.260;20.822;2023-09-19T14:37:18;4.78;;;4.22;;
52776;SDS011;38656;54.260;20.822;2023-09-19T14:39:46;5.60;;;3.67;;
52776;SDS011;38656;54.260;20.822;2023-09-19T14:42:12;8.73;;;4.00;;
52776;SDS011;38656;54.260;20.822;2023-09-19T14:44:42;6.57;;;4.10;;
52776;SDS011;38656;54.260;20.822;2023-09-19T14:47:08;9.07;;;4.18;;
52776;SDS011;38656;54.260;20.822;2023-09-19T14:49:38;4.50;;;3.60;;
52776;SDS011;38656;54.260;20.822;2023-09-19T14:52:04;4.72;;;4.13;;
52776;SDS011;38656;54.260;20.822;2023-09-19T14:54:31;7.60;;;4.25;;
52776;SDS011;38656;54.260;20.822;2023-09-19T14:56:57;5.97;;;3.75;;
52776;SDS011;38656;54.260;20.822;2023-09-19T14:59:29;8.50;;;4.25;;
52776;SDS011;38656;54.260;20.822;2023-09-19T15:01:56;7.03;;;3.42;;
52776;SDS011;38656;54.260;20.822;2023-09-19T15:04:23;7.13;;;3.88;;
52776;SDS011;38656;54.260;20.822;2023-09-19T15:06:49;10.52;;;3.75;;
52776;SDS011;38656;54.260;20.822;2023-09-19T15:09:19;6.70;;;4.32;;
52776;SDS011;38656;54.260;20.822;2023-09-19T15:11:47;6.30;;;3.72;;
52776;SDS011;38656;54.260;20.822;2023-09-19T15:14:13;6.18;;;3.55;;